Time;durP1;ratioP1;P1;durP2;ratioP2;P2;SDS_P1;SDS_P2;PMS_P1;PMS_P2;Temp;Humidity;BMP_temperature;BMP_pressure;BME280_temperature;BME280_humidity;BME280_pressure;Samples;Min_cycle;Max_cycle;Signal;HPM_P1;HPM_P2
2022/04/20 00:00:38;;;;;;;;;;;;;;;;;;5021226;28;20194;-59
2022/04/20 00:03:03;;;;;;;;;;;;;;;;;;5020433;28;19939;-59
2022/04/20 00:05:32;;;;;;;;;;;;;;;;;;5022153;28;19917;-59
2022/04/20 00:07:59;;;;;;;;;;;;;;;;;;5046567;28;20343;-60
2022/04/20 00:10:27;;;;;;;;;;;;;;;;;;5046495;28;20450;-58
2022/04/20 00:12:53;;;;;;;;;;;;;;;;;;5025200;28;19916;-59
2022/04/20 00:15:18;;;;;;;;;;;;;;;;;;5014414;28;19920;-58
2022/04/20 00:17:44;;;;;;;;;;;;;;;;;;5043350;28;20438;-60
2022/04/20 00:20:09;;;;;;;;;;;;;;;;;;5046343;28;19978;-60
2022/04/20 00:22:35;;;;;;;;;;;;;;;;;;5044582;28;19933;-59
2022/04/20 00:25:02;;;;;;;;;;;;;;;;;;5025776;28;19917;-59
2022/04/20 00:27:30;;;;;;;;;;;;;;;;;;5046371;28;19921;-61
2022/04/20 00:29:55;;;;;;;;;;;;;;;;;;5030452;28;19927;-60
2022/04/20 00:32:23;;;;;;;;;;;;;;;;;;5030126;28;19916;-60
2022/04/20 00:34:50;;;;;;;;;;;;;;;;;;5044877;28;19921;-60
2022/04/20 00:37:18;;;;;;;;;;;;;;;;;;5013604;28;19916;-59
2022/04/20 00:39:44;;;;;;;;;;;;;;;;;;5045117;28;19920;-60
2022/04/20 00:42:09;;;;;;;;;;;;;;;;;;5045482;28;19998;-60
2022/04/20 00:44:37;;;;;;;;;;;;;;;;;;5029200;28;20015;-59
2022/04/20 00:47:03;;;;;;;;;;;;;;;;;;5044510;28;19927;-60
2022/04/20 00:49:28;;;;;;;;;;;;;;;;;;5041493;28;19920;-60
2022/04/20 00:51:53;;;;;;;;;;;;;;;;;;5025704;28;19921;-59
2022/04/20 00:54:19;;;;;;;;;;;;;;;;;;5017767;28;19920;-60
2022/04/20 00:56:45;;;;;;;;;;;;;;;;;;5025228;28;19924;-60
2022/04/20 00:59:10;;;;;;;;;;;;;;;;;;5023350;28;19916;-60
2022/04/20 01:01:35;;;;;;;;;;;;;;;;;;5025979;28;19928;-60
2022/04/20 01:04:00;;;;;;;;;;;;;;;;;;5029282;28;19925;-60
2022/04/20 01:06:25;;;;;;;;;;;;;;;;;;5043962;28;20010;-60
2022/04/20 01:08:51;;;;;;;;;;;;;;;;;;5025286;28;19924;-60
2022/04/20 01:11:16;;;;;;;;;;;;;;;;;;5045168;28;20043;-60
2022/04/20 01:13:42;;;;;;;;;;;;;;;;;;5044772;28;19932;-59
2022/04/20 01:16:10;;;;;;;;;;;;;;;;;;5029970;28;19917;-59
2022/04/20 01:18:35;;;;;;;;;;;;;;;;;;5023505;28;20004;-59
2022/04/20 01:21:05;;;;;;;;;;;;;;;;;;5044849;28;19920;-59
2022/04/20 01:23:30;;;;;;;;;;;;;;;;;;5029272;28;20671;-60
2022/04/20 01:25:58;;;;;;;;;;;;;;;;;;5020589;28;19961;-59
2022/04/20 01:28:23;;;;;;;;;;;;;;;;;;5034480;28;19917;-59
2022/04/20 01:30:48;;;;;;;;;;;;;;;;;;5010300;28;19928;-59
2022/04/20 01:33:16;;;;;;;;;;;;;;;;;;5041523;28;19921;-60
2022/04/20 01:35:43;;;;;;;;;;;;;;;;;;5042413;28;20347;-59
2022/04/20 01:38:11;;;;;;;;;;;;;;;;;;5041220;28;19921;-59
2022/04/20 01:40:36;;;;;;;;;;;;;;;;;;5018898;28;20005;-60
2022/04/20 01:43:01;;;;;;;;;;;;;;;;;;5027086;28;20003;-60
2022/04/20 01:45:32;;;;;;;;;;;;;;;;;;5042483;28;19920;-60
2022/04/20 01:48:01;;;;;;;;;;;;;;;;;;5042253;28;19921;-60
2022/04/20 01:50:26;;;;;;;;;;;;;;;;;;5041769;28;19923;-60
2022/04/20 01:52:54;;;;;;;;;;;;;;;;;;5041291;28;19916;-59
2022/04/20 01:55:21;;;;;;;;;;;;;;;;;;5039053;28;20005;-60
2022/04/20 01:57:47;;;;;;;;;;;;;;;;;;5042271;28;19926;-60
2022/04/20 02:00:12;;;;;;;;;;;;;;;;;;5041702;28;19928;-59
2022/04/20 02:02:38;;;;;;;;;;;;;;;;;;5020649;28;19929;-59
2022/04/20 02:05:06;;;;;;;;;;;;;;;;;;5021181;28;19921;-59
2022/04/20 02:07:34;;;;;;;;;;;;;;;;;;5042438;28;20020;-59
2022/04/20 02:09:59;;;;;;;;;;;;;;;;;;5041950;28;19990;-59
2022/04/20 02:12:24;;;;;;;;;;;;;;;;;;5027969;28;20525;-59
2022/04/20 02:14:49;;;;;;;;;;;;;;;;;;5023729;28;20183;-60
2022/04/20 02:17:18;;;;;;;;;;;;;;;;;;5040049;28;20025;-60
2022/04/20 02:19:43;;;;;;;;;;;;;;;;;;5041893;28;20220;-59
2022/04/20 02:22:09;;;;;;;;;;;;;;;;;;5020213;28;19932;-59
2022/04/20 02:24:37;;;;;;;;;;;;;;;;;;5025385;28;20584;-60
2022/04/20 02:27:02;;;;;;;;;;;;;;;;;;5038855;28;19963;-59
2022/04/20 02:29:30;;;;;;;;;;;;;;;;;;5031869;28;20357;-58
2022/04/20 02:31:56;;;;;;;;;;;;;;;;;;5025226;28;19923;-60
2022/04/20 02:34:24;;;;;;;;;;;;;;;;;;5021172;28;19927;-60
2022/04/20 02:36:52;;;;;;;;;;;;;;;;;;5040598;28;19921;-58
2022/04/20 02:39:18;;;;;;;;;;;;;;;;;;5039830;28;19920;-61
2022/04/20 02:41:43;;;;;;;;;;;;;;;;;;5023323;28;19920;-61
2022/04/20 02:44:09;;;;;;;;;;;;;;;;;;5039428;28;19920;-59
2022/04/20 02:46:35;;;;;;;;;;;;;;;;;;5040686;28;19942;-60
2022/04/20 02:49:00;;;;;;;;;;;;;;;;;;5019175;28;19936;-60
2022/04/20 02:51:28;;;;;;;;;;;;;;;;;;5030686;28;19920;-60
2022/04/20 02:53:54;;;;;;;;;;;;;;;;;;5017138;28;20007;-60
2022/04/20 02:56:21;;;;;;;;;;;;;;;;;;5038477;28;19924;-60
2022/04/20 02:58:46;;;;;;;;;;;;;;;;;;5039840;28;19920;-59
2022/04/20 03:01:12;;;;;;;;;;;;;;;;;;5040843;28;20001;-59
2022/04/20 03:03:37;;;;;;;;;;;;;;;;;;5008168;28;20450;-59
2022/04/20 03:06:02;;;;;;;;;;;;;;;;;;5031539;28;20353;-59
2022/04/20 03:08:28;;;;;;;;;;;;;;;;;;5038874;28;20015;-59
2022/04/20 03:10:53;;;;;;;;;;;;;;;;;;5024041;28;19930;-59
2022/04/20 03:13:19;;;;;;;;;;;;;;;;;;5038950;28;19967;-60
2022/04/20 03:15:46;;;;;;;;;;;;;;;;;;5039171;28;19920;-59
2022/04/20 03:18:12;;;;;;;;;;;;;;;;;;5038744;28;19916;-59
2022/04/20 03:20:37;;;;;;;;;;;;;;;;;;5040106;28;20005;-59
2022/04/20 03:23:06;;;;;;;;;;;;;;;;;;5024955;28;20034;-60
2022/04/20 03:25:31;;;;;;;;;;;;;;;;;;5039136;28;19917;-61
2022/04/20 03:27:59;;;;;;;;;;;;;;;;;;5017139;28;19920;-60
2022/04/20 03:30:24;;;;;;;;;;;;;;;;;;5020304;28;19916;-60
2022/04/20 03:32:50;;;;;;;;;;;;;;;;;;5019890;28;20831;-60
2022/04/20 03:35:17;;;;;;;;;;;;;;;;;;5014809;28;19925;-60
2022/04/20 03:37:43;;;;;;;;;;;;;;;;;;5028876;28;21642;-60
2022/04/20 03:40:08;;;;;;;;;;;;;;;;;;5018066;28;20095;-60
2022/04/20 03:42:35;;;;;;;;;;;;;;;;;;5044565;28;20568;-60
2022/04/20 03:45:01;;;;;;;;;;;;;;;;;;5030625;28;20862;-60
2022/04/20 03:47:26;;;;;;;;;;;;;;;;;;5025804;28;19920;-60
2022/04/20 03:49:51;;;;;;;;;;;;;;;;;;5045757;28;20789;-60
2022/04/20 03:52:16;;;;;;;;;;;;;;;;;;5025402;28;21808;-60
2022/04/20 03:54:42;;;;;;;;;;;;;;;;;;5029942;28;19924;-60
2022/04/20 03:57:07;;;;;;;;;;;;;;;;;;5044835;28;19920;-60
2022/04/20 03:59:38;;;;;;;;;;;;;;;;;;5044701;28;19916;-60
2022/04/20 04:02:03;;;;;;;;;;;;;;;;;;5023803;28;19956;-60
2022/04/20 04:04:31;;;;;;;;;;;;;;;;;;5034704;28;20050;-59
2022/04/20 04:06:59;;;;;;;;;;;;;;;;;;5025241;28;19916;-60
2022/04/20 04:09:25;;;;;;;;;;;;;;;;;;5025956;28;20423;-59
2022/04/20 04:11:50;;;;;;;;;;;;;;;;;;5043656;28;19939;-59
2022/04/20 04:14:18;;;;;;;;;;;;;;;;;;5020956;28;21469;-59
2022/04/20 04:16:46;;;;;;;;;;;;;;;;;;5045070;28;19923;-59
2022/04/20 04:19:11;;;;;;;;;;;;;;;;;;5042421;28;19990;-60
2022/04/20 04:21:38;;;;;;;;;;;;;;;;;;5046188;28;20466;-60
2022/04/20 04:24:03;;;;;;;;;;;;;;;;;;5042129;28;20101;-60
2022/04/20 04:26:30;;;;;;;;;;;;;;;;;;5029135;28;19945;-60
2022/04/20 04:28:57;;;;;;;;;;;;;;;;;;5022069;28;19920;-59
2022/04/20 04:31:23;;;;;;;;;;;;;;;;;;5013111;28;19925;-59
2022/04/20 04:33:48;;;;;;;;;;;;;;;;;;5044677;28;19990;-59
2022/04/20 04:36:14;;;;;;;;;;;;;;;;;;5027109;28;19921;-60
2022/04/20 04:38:39;;;;;;;;;;;;;;;;;;5024405;28;19916;-59
2022/04/20 04:41:05;;;;;;;;;;;;;;;;;;5042779;28;19928;-61
2022/04/20 04:43:30;;;;;;;;;;;;;;;;;;5034649;28;19920;-59
2022/04/20 04:48:39;;;;;;;;;;;;;;;;;;5042899;28;20430;-60
2022/04/20 04:51:07;;;;;;;;;;;;;;;;;;5044346;28;19921;-61
2022/04/20 04:53:35;;;;;;;;;;;;;;;;;;5040554;28;19920;-59
2022/04/20 04:56:02;;;;;;;;;;;;;;;;;;5042173;28;20384;-59
2022/04/20 04:58:28;;;;;;;;;;;;;;;;;;5042440;28;20003;-60
2022/04/20 05:00:56;;;;;;;;;;;;;;;;;;5043082;28;19921;-60
2022/04/20 05:03:21;;;;;;;;;;;;;;;;;;5043256;28;19925;-60
2022/04/20 05:05:49;;;;;;;;;;;;;;;;;;5044415;28;19916;-60
2022/04/20 05:08:15;;;;;;;;;;;;;;;;;;5028115;28;20293;-61
2022/04/20 05:10:40;;;;;;;;;;;;;;;;;;5027136;28;20401;-58
2022/04/20 05:13:08;;;;;;;;;;;;;;;;;;5044021;28;19924;-59
2022/04/20 05:15:33;;;;;;;;;;;;;;;;;;5027246;28;20437;-59
2022/04/20 05:18:01;;;;;;;;;;;;;;;;;;5021997;28;19925;-60
2022/04/20 05:20:27;;;;;;;;;;;;;;;;;;5044703;28;20113;-60
2022/04/20 05:22:54;;;;;;;;;;;;;;;;;;5044431;28;20102;-60
2022/04/20 05:25:20;;;;;;;;;;;;;;;;;;5023610;28;19927;-60
2022/04/20 05:27:45;;;;;;;;;;;;;;;;;;5043887;28;20576;-61
2022/04/20 05:30:15;;;;;;;;;;;;;;;;;;5024795;28;20043;-60
2022/04/20 05:32:43;;;;;;;;;;;;;;;;;;5012873;28;20392;-60
2022/04/20 05:35:11;;;;;;;;;;;;;;;;;;5012837;28;19978;-58
2022/04/20 05:43:04;;;;;;;;;;;;;;;;;;5041581;28;20019;-59
2022/04/20 05:45:32;;;;;;;;;;;;;;;;;;5042505;28;19926;-59
2022/04/20 05:47:58;;;;;;;;;;;;;;;;;;5026424;28;20319;-59
2022/04/20 05:50:23;;;;;;;;;;;;;;;;;;5041972;28;20418;-59
2022/04/20 05:52:49;;;;;;;;;;;;;;;;;;5040688;28;19931;-59
2022/04/20 05:55:16;;;;;;;;;;;;;;;;;;5041289;28;19928;-59
2022/04/20 05:57:42;;;;;;;;;;;;;;;;;;5035726;28;19934;-59
2022/04/20 06:00:10;;;;;;;;;;;;;;;;;;5042923;28;19928;-58
2022/04/20 06:02:35;;;;;;;;;;;;;;;;;;5021450;28;19920;-59
2022/04/20 06:05:01;;;;;;;;;;;;;;;;;;5041778;28;19927;-60
2022/04/20 06:07:29;;;;;;;;;;;;;;;;;;5023152;28;20366;-60
2022/04/20 06:09:54;;;;;;;;;;;;;;;;;;5025275;28;19923;-59
2022/04/20 06:12:23;;;;;;;;;;;;;;;;;;5020132;28;19920;-60
2022/04/20 06:14:48;;;;;;;;;;;;;;;;;;5011388;28;19916;-60
2022/04/20 06:17:13;;;;;;;;;;;;;;;;;;5043981;28;19931;-59
2022/04/20 06:19:42;;;;;;;;;;;;;;;;;;5042289;28;19916;-60
2022/04/20 06:22:09;;;;;;;;;;;;;;;;;;5023791;28;19922;-59
2022/04/20 06:24:37;;;;;;;;;;;;;;;;;;5025520;28;19921;-59
2022/04/20 06:27:02;;;;;;;;;;;;;;;;;;5010830;28;20853;-60
2022/04/20 06:29:28;;;;;;;;;;;;;;;;;;5020341;28;19920;-60
2022/04/20 06:31:56;;;;;;;;;;;;;;;;;;5040361;28;20399;-61
2022/04/20 06:34:24;;;;;;;;;;;;;;;;;;5040533;28;20047;-60
2022/04/20 06:36:49;;;;;;;;;;;;;;;;;;5041902;28;20042;-60
2022/04/20 06:39:17;;;;;;;;;;;;;;;;;;5009090;28;19920;-61
2022/04/20 06:41:42;;;;;;;;;;;;;;;;;;5026313;28;19931;-59
2022/04/20 06:44:08;;;;;;;;;;;;;;;;;;5040457;28;19948;-60
2022/04/20 06:46:37;;;;;;;;;;;;;;;;;;5015425;28;20165;-61
2022/04/20 06:49:03;;;;;;;;;;;;;;;;;;5015442;28;20028;-60
2022/04/20 06:58:31;;;;;;;;;;;;;;;;;;5019568;28;20879;-61
2022/04/20 06:59:44;;;;;;;;;;;;;;;;;;5040616;28;19916;-60
2022/04/20 07:02:09;;;;;;;;;;;;;;;;;;5038434;28;19924;-59
2022/04/20 07:04:37;;;;;;;;;;;;;;;;;;5031858;28;20097;-60
2022/04/20 07:07:02;;;;;;;;;;;;;;;;;;5040872;28;21155;-60
2022/04/20 07:09:28;;;;;;;;;;;;;;;;;;5040866;28;19920;-62
2022/04/20 07:11:55;;;;;;;;;;;;;;;;;;5028394;28;19921;-60
2022/04/20 07:14:21;;;;;;;;;;;;;;;;;;5020999;28;20009;-60
2022/04/20 07:16:46;;;;;;;;;;;;;;;;;;5039501;28;19921;-60
2022/04/20 07:19:14;;;;;;;;;;;;;;;;;;5020674;28;19921;-61
2022/04/20 07:21:39;;;;;;;;;;;;;;;;;;5026838;28;19927;-61
2022/04/20 07:24:04;;;;;;;;;;;;;;;;;;5020150;28;20519;-61
2022/04/20 07:26:30;;;;;;;;;;;;;;;;;;5039606;28;20838;-61
2022/04/20 07:28:56;;;;;;;;;;;;;;;;;;5040147;28;19989;-61
2022/04/20 07:31:21;;;;;;;;;;;;;;;;;;5019215;28;21784;-61
2022/04/20 07:33:47;;;;;;;;;;;;;;;;;;5019002;28;20460;-60
2022/04/20 07:36:12;;;;;;;;;;;;;;;;;;5020276;28;20455;-61
2022/04/20 07:38:40;;;;;;;;;;;;;;;;;;5025644;28;19948;-63
2022/04/20 07:41:08;;;;;;;;;;;;;;;;;;5020882;28;20011;-61
2022/04/20 07:43:33;;;;;;;;;;;;;;;;;;5040338;28;20388;-62
2022/04/20 07:45:58;;;;;;;;;;;;;;;;;;5025064;28;19928;-62
2022/04/20 07:48:24;;;;;;;;;;;;;;;;;;5014481;28;19923;-62
2022/04/20 07:50:49;;;;;;;;;;;;;;;;;;5021683;28;20015;-61
2022/04/20 07:53:15;;;;;;;;;;;;;;;;;;5024742;28;19916;-62
2022/04/20 07:55:46;;;;;;;;;;;;;;;;;;5039053;28;19928;-62
2022/04/20 07:58:12;;;;;;;;;;;;;;;;;;5020376;28;20035;-62
2022/04/20 08:00:41;;;;;;;;;;;;;;;;;;5039184;28;19921;-63
2022/04/20 08:03:09;;;;;;;;;;;;;;;;;;5275337;22;19982;-61
2022/04/20 08:05:34;;;;;;;;;;;;;;;;;;5010697;28;19916;-61
2022/04/20 08:07:59;;;;;;;;;;;;;;;;;;5030775;28;19920;-62
2022/04/20 08:10:25;;;;;;;;;;;;;;;;;;5012009;28;20413;-62
2022/04/20 08:12:52;;;;;;;;;;;;;;;;;;5021277;28;20287;-61
2022/04/20 08:15:18;;;;;;;;;;;;;;;;;;5010519;28;19920;-62
2022/04/20 08:17:43;;;;;;;;;;;;;;;;;;5012038;28;20268;-62
2022/04/20 08:20:08;;;;;;;;;;;;;;;;;;5011331;28;19959;-62
2022/04/20 08:22:36;;;;;;;;;;;;;;;;;;5030807;28;19974;-62
2022/04/20 08:25:05;;;;;;;;;;;;;;;;;;5011482;28;20334;-62
2022/04/20 08:27:30;;;;;;;;;;;;;;;;;;5033303;28;19920;-62
2022/04/20 08:29:57;;;;;;;;;;;;;;;;;;5033548;28;19963;-62
2022/04/20 08:32:26;;;;;;;;;;;;;;;;;;5031313;28;20762;-61
2022/04/20 08:34:51;;;;;;;;;;;;;;;;;;4998850;28;19921;-62
2022/04/20 08:37:19;;;;;;;;;;;;;;;;;;5014059;28;19951;-62
2022/04/20 08:39:47;;;;;;;;;;;;;;;;;;5031821;28;19916;-63
2022/04/20 08:42:12;;;;;;;;;;;;;;;;;;5031546;28;20694;-62
2022/04/20 08:44:40;;;;;;;;;;;;;;;;;;5033398;28;19916;-61
2022/04/20 08:47:10;;;;;;;;;;;;;;;;;;5034818;28;19928;-62
2022/04/20 08:49:36;;;;;;;;;;;;;;;;;;5017203;28;19924;-61
2022/04/20 08:54:50;;;;;;;;;;;;;;;;;;5014964;28;20360;-61
2022/04/20 08:57:16;;;;;;;;;;;;;;;;;;5012963;28;19921;-61
2022/04/20 08:59:41;;;;;;;;;;;;;;;;;;4999393;28;19928;-62
2022/04/20 09:02:09;;;;;;;;;;;;;;;;;;5016340;28;19928;-62
2022/04/20 09:04:34;;;;;;;;;;;;;;;;;;5033569;28;19970;-62
2022/04/20 09:07:05;;;;;;;;;;;;;;;;;;5016202;28;20818;-62
2022/04/20 09:09:31;;;;;;;;;;;;;;;;;;5024724;28;19998;-62
2022/04/20 09:11:57;;;;;;;;;;;;;;;;;;5033287;28;19955;-62
2022/04/20 09:14:23;;;;;;;;;;;;;;;;;;5016924;28;19921;-62
2022/04/20 09:16:51;;;;;;;;;;;;;;;;;;5016628;28;19953;-62
2022/04/20 09:19:18;;;;;;;;;;;;;;;;;;5034166;28;21805;-62
2022/04/20 09:21:43;;;;;;;;;;;;;;;;;;5035228;28;19924;-62
2022/04/20 09:24:10;;;;;;;;;;;;;;;;;;5008516;28;19916;-63
2022/04/20 09:26:38;;;;;;;;;;;;;;;;;;5034723;28;20531;-63
2022/04/20 09:29:03;;;;;;;;;;;;;;;;;;5016570;28;19970;-63
2022/04/20 09:31:29;;;;;;;;;;;;;;;;;;5034299;28;19933;-63
2022/04/20 09:33:55;;;;;;;;;;;;;;;;;;5014384;28;19970;-63
2022/04/20 09:36:20;;;;;;;;;;;;;;;;;;4999890;28;19924;-61
2022/04/20 09:38:47;;;;;;;;;;;;;;;;;;5014158;28;20035;-61
2022/04/20 09:41:14;;;;;;;;;;;;;;;;;;5013046;28;20024;-62
2022/04/20 09:43:40;;;;;;;;;;;;;;;;;;4997856;28;20379;-61
2022/04/20 09:48:50;;;;;;;;;;;;;;;;;;5015306;28;19920;-62
2022/04/20 09:48:51;;;;;;;;;;;;;;;;;;5013818;28;19971;-62
2022/04/20 09:51:20;;;;;;;;;;;;;;;;;;5015103;28;19917;-62
2022/04/20 09:53:54;;;;;;;;;;;;;;;;;;5014381;28;19925;-62
2022/04/20 09:56:21;;;;;;;;;;;;;;;;;;5031213;28;20476;-62
2022/04/20 09:58:46;;;;;;;;;;;;;;;;;;5031670;28;19921;-62
2022/04/20 10:01:15;;;;;;;;;;;;;;;;;;5033809;28;19928;-62
2022/04/20 10:03:43;;;;;;;;;;;;;;;;;;5031059;28;19928;-65
2022/04/20 10:06:09;;;;;;;;;;;;;;;;;;5032672;28;19921;-62
2022/04/20 10:08:35;;;;;;;;;;;;;;;;;;5032879;28;19931;-62
2022/04/20 10:11:00;;;;;;;;;;;;;;;;;;5030784;28;19921;-62
2022/04/20 10:13:26;;;;;;;;;;;;;;;;;;5031711;28;20943;-60
2022/04/20 10:16:08;;;;;;;;;;;;;;;;;;5030883;28;19986;-61
2022/04/20 10:18:37;;;;;;;;;;;;;;;;;;5013129;28;19928;-61
2022/04/20 10:21:02;;;;;;;;;;;;;;;;;;5033547;28;20288;-61
2022/04/20 10:23:29;;;;;;;;;;;;;;;;;;5029701;28;20019;-61
2022/04/20 10:26:13;;;;;;;;;;;;;;;;;;5003314;28;19917;-61
2022/04/20 10:28:39;;;;;;;;;;;;;;;;;;5032082;28;20342;-61
2022/04/20 10:31:04;;;;;;;;;;;;;;;;;;5014873;28;19920;-61
2022/04/20 10:33:31;;;;;;;;;;;;;;;;;;5030627;28;19928;-61
2022/04/20 10:35:56;;;;;;;;;;;;;;;;;;5010635;28;20169;-61
2022/04/20 10:38:22;;;;;;;;;;;;;;;;;;5013294;28;19925;-61
2022/04/20 10:40:47;;;;;;;;;;;;;;;;;;5010814;28;19921;-63
2022/04/20 10:43:13;;;;;;;;;;;;;;;;;;4997800;28;20462;-62
2022/04/20 10:45:38;;;;;;;;;;;;;;;;;;5029706;28;20394;-61
2022/04/20 10:48:03;;;;;;;;;;;;;;;;;;5015055;28;20612;-62
2022/04/20 10:50:30;;;;;;;;;;;;;;;;;;5009358;28;19921;-63
2022/04/20 10:53:06;;;;;;;;;;;;;;;;;;5015979;28;20004;-62
2022/04/20 10:55:31;;;;;;;;;;;;;;;;;;5011547;28;19968;-61
2022/04/20 10:58:00;;;;;;;;;;;;;;;;;;5032684;28;20018;-59
2022/04/20 11:00:28;;;;;;;;;;;;;;;;;;5015251;28;19998;-62
2022/04/20 11:02:53;;;;;;;;;;;;;;;;;;4998698;28;20390;-62
2022/04/20 11:05:19;;;;;;;;;;;;;;;;;;5031787;28;19928;-61
2022/04/20 11:07:44;;;;;;;;;;;;;;;;;;5030587;28;20599;-61
2022/04/20 11:10:12;;;;;;;;;;;;;;;;;;5012609;28;19916;-60
2022/04/20 11:20:49;;;;;;;;;;;;;;;;;;5030236;28;19998;-61
2022/04/20 11:23:19;;;;;;;;;;;;;;;;;;5014870;28;20051;-62
2022/04/20 11:25:47;;;;;;;;;;;;;;;;;;5030212;28;19939;-62
2022/04/20 11:28:12;;;;;;;;;;;;;;;;;;4996472;28;20470;-61
2022/04/20 11:30:40;;;;;;;;;;;;;;;;;;4998522;28;19917;-61
2022/04/20 11:33:05;;;;;;;;;;;;;;;;;;5005638;28;20367;-61
2022/04/20 11:35:31;;;;;;;;;;;;;;;;;;5011330;28;19954;-61
2022/04/20 11:37:57;;;;;;;;;;;;;;;;;;5011646;28;20556;-61
2022/04/20 11:40:22;;;;;;;;;;;;;;;;;;5029485;28;20009;-63
2022/04/20 11:42:48;;;;;;;;;;;;;;;;;;4995247;28;19929;-61
2022/04/20 11:45:14;;;;;;;;;;;;;;;;;;5029839;28;19994;-61
2022/04/20 11:47:42;;;;;;;;;;;;;;;;;;5010924;28;19952;-62
2022/04/20 11:50:15;;;;;;;;;;;;;;;;;;5011443;28;19983;-61
2022/04/20 11:52:40;;;;;;;;;;;;;;;;;;5029887;28;19928;-61
2022/04/20 11:55:06;;;;;;;;;;;;;;;;;;5029876;28;19917;-60
2022/04/20 11:57:34;;;;;;;;;;;;;;;;;;4997781;28;19920;-61
2022/04/20 12:00:00;;;;;;;;;;;;;;;;;;5014484;28;19921;-61
2022/04/20 12:02:26;;;;;;;;;;;;;;;;;;5022753;28;19927;-61
2022/04/20 12:04:54;;;;;;;;;;;;;;;;;;5033578;28;19928;-61
2022/04/20 12:07:19;;;;;;;;;;;;;;;;;;5032557;28;19925;-61
2022/04/20 12:09:50;;;;;;;;;;;;;;;;;;5016353;28;20406;-58
2022/04/20 12:12:18;;;;;;;;;;;;;;;;;;5032532;28;19933;-62
2022/04/20 12:14:46;;;;;;;;;;;;;;;;;;5033273;28;20035;-61
2022/04/20 12:17:11;;;;;;;;;;;;;;;;;;5034334;28;19921;-61
2022/04/20 12:19:40;;;;;;;;;;;;;;;;;;5001264;28;19927;-61
2022/04/20 12:22:05;;;;;;;;;;;;;;;;;;5017212;28;19921;-59
2022/04/20 12:24:34;;;;;;;;;;;;;;;;;;5036126;28;20099;-61
2022/04/20 12:26:59;;;;;;;;;;;;;;;;;;5017901;28;19925;-62
2022/04/20 12:29:25;;;;;;;;;;;;;;;;;;5018616;28;19996;-62
2022/04/20 12:31:50;;;;;;;;;;;;;;;;;;5035097;28;19963;-62
2022/04/20 12:34:16;;;;;;;;;;;;;;;;;;5034853;28;20023;-62
2022/04/20 12:36:45;;;;;;;;;;;;;;;;;;5007327;28;20263;-62
2022/04/20 12:39:11;;;;;;;;;;;;;;;;;;5016838;28;19999;-60
2022/04/20 12:41:36;;;;;;;;;;;;;;;;;;5016593;28;20482;-62
2022/04/20 12:44:03;;;;;;;;;;;;;;;;;;5000737;28;20282;-62
2022/04/20 12:46:28;;;;;;;;;;;;;;;;;;5034786;28;20312;-62
2022/04/20 12:52:09;;;;;;;;;;;;;;;;;;5034354;28;20765;-62
2022/04/20 12:54:35;;;;;;;;;;;;;;;;;;5013424;28;19933;-62
2022/04/20 13:02:48;;;;;;;;;;;;;;;;;;5027777;28;19920;-61
2022/04/20 13:05:15;;;;;;;;;;;;;;;;;;5032240;28;20491;-62
2022/04/20 13:07:41;;;;;;;;;;;;;;;;;;5016381;28;20006;-62
2022/04/20 13:10:10;;;;;;;;;;;;;;;;;;5015204;28;19921;-63
2022/04/20 13:12:36;;;;;;;;;;;;;;;;;;5033943;28;20027;-60
2022/04/20 13:15:01;;;;;;;;;;;;;;;;;;5014870;28;20012;-62
2022/04/20 13:17:36;;;;;;;;;;;;;;;;;;5034626;28;19916;-60
2022/04/20 13:20:01;;;;;;;;;;;;;;;;;;5033113;28;21253;-62
2022/04/20 13:22:27;;;;;;;;;;;;;;;;;;5033116;28;19916;-61
2022/04/20 13:27:54;;;;;;;;;;;;;;;;;;5013072;28;19999;-62
2022/04/20 13:30:20;;;;;;;;;;;;;;;;;;5012129;28;19967;-59
2022/04/20 13:32:45;;;;;;;;;;;;;;;;;;5031358;28;20015;-62
2022/04/20 13:35:13;;;;;;;;;;;;;;;;;;5032564;28;22061;-60
2022/04/20 13:37:41;;;;;;;;;;;;;;;;;;5015030;28;19960;-59
2022/04/20 13:40:08;;;;;;;;;;;;;;;;;;5029321;28;20737;-59
2022/04/20 13:42:40;;;;;;;;;;;;;;;;;;5033166;28;20106;-60
2022/04/20 13:45:05;;;;;;;;;;;;;;;;;;5015335;28;19920;-61
2022/04/20 13:47:30;;;;;;;;;;;;;;;;;;5014312;28;20616;-61
2022/04/20 13:49:58;;;;;;;;;;;;;;;;;;4998440;28;20037;-62
2022/04/20 13:52:24;;;;;;;;;;;;;;;;;;5031880;28;20000;-62
2022/04/20 13:54:49;;;;;;;;;;;;;;;;;;5033425;28;20411;-62
2022/04/20 13:57:14;;;;;;;;;;;;;;;;;;5014267;28;19978;-61
2022/04/20 13:59:40;;;;;;;;;;;;;;;;;;5031172;28;19916;-61
2022/04/20 14:02:06;;;;;;;;;;;;;;;;;;4999385;28;19935;-61
2022/04/20 14:04:34;;;;;;;;;;;;;;;;;;5014964;28;19920;-62
2022/04/20 14:07:03;;;;;;;;;;;;;;;;;;5013349;28;19925;-59
2022/04/20 14:09:28;;;;;;;;;;;;;;;;;;5015951;28;20490;-60
2022/04/20 14:11:54;;;;;;;;;;;;;;;;;;5013590;28;19964;-61
2022/04/20 14:14:19;;;;;;;;;;;;;;;;;;5029701;28;20003;-61
2022/04/20 14:16:45;;;;;;;;;;;;;;;;;;5030525;28;20421;-60
2022/04/20 14:19:10;;;;;;;;;;;;;;;;;;5031836;28;20315;-61
2022/04/20 14:21:36;;;;;;;;;;;;;;;;;;4998327;28;19920;-60
2022/04/20 14:32:26;;;;;;;;;;;;;;;;;;5031683;28;19935;-61
2022/04/20 14:34:52;;;;;;;;;;;;;;;;;;5013413;28;19921;-59
2022/04/20 14:37:21;;;;;;;;;;;;;;;;;;5032177;28;20021;-61
2022/04/20 14:39:51;;;;;;;;;;;;;;;;;;5005159;28;21783;-61
2022/04/20 14:42:17;;;;;;;;;;;;;;;;;;5012550;28;19924;-59
2022/04/20 14:44:43;;;;;;;;;;;;;;;;;;5029872;28;19932;-59
2022/04/20 14:47:09;;;;;;;;;;;;;;;;;;5014758;28;19917;-60
2022/04/20 14:49:35;;;;;;;;;;;;;;;;;;5023649;28;19978;-61
2022/04/20 14:52:00;;;;;;;;;;;;;;;;;;5014092;28;19924;-61
2022/04/20 14:54:28;;;;;;;;;;;;;;;;;;5033111;28;20371;-61
2022/04/20 14:56:54;;;;;;;;;;;;;;;;;;5031090;28;19917;-60
2022/04/20 14:59:19;;;;;;;;;;;;;;;;;;5014610;28;20255;-60
2022/04/20 15:01:50;;;;;;;;;;;;;;;;;;5029637;28;20133;-62
2022/04/20 15:07:32;;;;;;;;;;;;;;;;;;5031630;28;19927;-61
2022/04/20 15:09:57;;;;;;;;;;;;;;;;;;5032237;28;19924;-61
2022/04/20 15:12:26;;;;;;;;;;;;;;;;;;5031326;28;20036;-60
2022/04/20 15:14:51;;;;;;;;;;;;;;;;;;5030120;28;19921;-61
2022/04/20 15:17:19;;;;;;;;;;;;;;;;;;5014870;28;20031;-61
2022/04/20 15:19:44;;;;;;;;;;;;;;;;;;5030312;28;20417;-61
2022/04/20 15:22:11;;;;;;;;;;;;;;;;;;5030057;28;20612;-60
2022/04/20 15:24:36;;;;;;;;;;;;;;;;;;5011008;28;20782;-61
2022/04/20 15:27:02;;;;;;;;;;;;;;;;;;5029823;28;20017;-62
2022/04/20 15:29:27;;;;;;;;;;;;;;;;;;5030887;28;19921;-61
2022/04/20 15:31:55;;;;;;;;;;;;;;;;;;5005143;28;21800;-61
2022/04/20 15:34:20;;;;;;;;;;;;;;;;;;4996684;28;20040;-61
2022/04/20 15:36:46;;;;;;;;;;;;;;;;;;5013658;28;19925;-61
2022/04/20 15:39:11;;;;;;;;;;;;;;;;;;5028767;28;19921;-60
2022/04/20 15:41:38;;;;;;;;;;;;;;;;;;5004918;28;20011;-60
2022/04/20 15:44:03;;;;;;;;;;;;;;;;;;5012482;28;20380;-61
2022/04/20 15:46:29;;;;;;;;;;;;;;;;;;5030897;28;19917;-58
2022/04/20 15:48:55;;;;;;;;;;;;;;;;;;5031579;28;19916;-60
2022/04/20 15:51:25;;;;;;;;;;;;;;;;;;5008730;28;20047;-61
2022/04/20 15:53:55;;;;;;;;;;;;;;;;;;5005909;28;19952;-60
2022/04/20 16:01:58;;;;;;;;;;;;;;;;;;5029555;28;19952;-60
2022/04/20 16:04:32;;;;;;;;;;;;;;;;;;5015067;28;19924;-60
2022/04/20 16:07:01;;;;;;;;;;;;;;;;;;4995645;28;19921;-61
2022/04/20 16:09:29;;;;;;;;;;;;;;;;;;5007055;28;19983;-60
2022/04/20 16:11:54;;;;;;;;;;;;;;;;;;5011506;28;19916;-61
2022/04/20 16:14:19;;;;;;;;;;;;;;;;;;5009286;28;19932;-61
2022/04/20 16:16:45;;;;;;;;;;;;;;;;;;5030203;28;20010;-61
2022/04/20 16:19:11;;;;;;;;;;;;;;;;;;5028020;28;20371;-60
2022/04/20 16:21:41;;;;;;;;;;;;;;;;;;5029174;28;19921;-60
2022/04/20 16:24:06;;;;;;;;;;;;;;;;;;5023316;28;20402;-59
2022/04/20 16:26:35;;;;;;;;;;;;;;;;;;5022244;28;19921;-60
2022/04/20 16:29:01;;;;;;;;;;;;;;;;;;5026561;28;19920;-61
2022/04/20 16:31:29;;;;;;;;;;;;;;;;;;5009142;28;19928;-60
2022/04/20 16:33:55;;;;;;;;;;;;;;;;;;5030170;28;21019;-61
2022/04/20 16:36:30;;;;;;;;;;;;;;;;;;5028355;28;19971;-60
2022/04/20 16:38:56;;;;;;;;;;;;;;;;;;5010097;28;19928;-60
2022/04/20 16:41:24;;;;;;;;;;;;;;;;;;5025242;28;20015;-58
2022/04/20 16:43:55;;;;;;;;;;;;;;;;;;5010068;28;19993;-60
2022/04/20 16:46:21;;;;;;;;;;;;;;;;;;5020108;28;19921;-59
2022/04/20 16:48:46;;;;;;;;;;;;;;;;;;5025268;28;19921;-60
2022/04/20 16:51:12;;;;;;;;;;;;;;;;;;5011935;28;19927;-59
2022/04/20 16:53:38;;;;;;;;;;;;;;;;;;5010235;28;19921;-60
2022/04/20 16:56:03;;;;;;;;;;;;;;;;;;5021189;28;19920;-60
2022/04/20 16:58:31;;;;;;;;;;;;;;;;;;5011249;28;19944;-60
2022/04/20 17:00:57;;;;;;;;;;;;;;;;;;5033336;28;20403;-59
2022/04/20 17:03:25;;;;;;;;;;;;;;;;;;5014626;28;19981;-59
2022/04/20 17:05:52;;;;;;;;;;;;;;;;;;5024119;28;20025;-60
2022/04/20 17:08:18;;;;;;;;;;;;;;;;;;5034742;28;19920;-59
2022/04/20 17:10:46;;;;;;;;;;;;;;;;;;5032769;28;19917;-59
2022/04/20 17:13:11;;;;;;;;;;;;;;;;;;4995376;28;19932;-60
2022/04/20 17:15:37;;;;;;;;;;;;;;;;;;5015783;28;20195;-59
2022/04/20 17:18:03;;;;;;;;;;;;;;;;;;5011274;28;19920;-59
2022/04/20 17:28:42;;;;;;;;;;;;;;;;;;5007796;28;20524;-60
2022/04/20 17:31:08;;;;;;;;;;;;;;;;;;5013209;28;20454;-60
2022/04/20 17:33:33;;;;;;;;;;;;;;;;;;5017574;28;19925;-59
2022/04/20 17:38:46;;;;;;;;;;;;;;;;;;5033633;28;20056;-59
2022/04/20 17:41:11;;;;;;;;;;;;;;;;;;5023086;28;20788;-60
2022/04/20 17:43:37;;;;;;;;;;;;;;;;;;4995638;28;19920;-64
2022/04/20 17:46:02;;;;;;;;;;;;;;;;;;4998938;28;19917;-59